Time;durP1;ratioP1;P1;durP2;ratioP2;P2;SDS_P1;SDS_P2;PMS_P1;PMS_P2;Temp;Humidity;BMP_temperature;BMP_pressure;BME280_temperature;BME280_humidity;BME280_pressure;Samples;Min_cycle;Max_cycle;Signal;HPM_P1;HPM_P2
2022/10/24 00:02:07;;;;;;;3.45;1.70;;;14.50;99.90;;;;;;4990683;28;20130;-80
2022/10/24 00:04:38;;;;;;;5.53;1.85;;;14.40;99.90;;;;;;4990289;28;20543;-80
2022/10/24 00:07:06;;;;;;;5.80;1.88;;;14.40;99.90;;;;;;4990515;28;20073;-80
2022/10/24 00:09:32;;;;;;;19.73;2.70;;;14.30;99.90;;;;;;4974277;28;20057;-80
2022/10/24 00:11:58;;;;;;;15.05;2.40;;;14.50;99.90;;;;;;4973544;28;20045;-81
2022/10/24 00:14:28;;;;;;;2.65;1.42;;;14.30;99.90;;;;;;4990432;28;20093;-80
2022/10/24 00:16:54;;;;;;;5.20;2.20;;;14.30;99.90;;;;;;4989386;28;20050;-81
2022/10/24 00:19:20;;;;;;;3.55;1.73;;;14.30;99.90;;;;;;4989740;28;20053;-80
2022/10/24 00:21:52;;;;;;;6.95;1.55;;;14.30;99.90;;;;;;4974208;28;20057;-81
2022/10/24 00:24:18;;;;;;;3.90;1.65;;;14.30;99.90;;;;;;4990450;28;20420;-80
2022/10/24 00:26:43;;;;;;;8.95;2.17;;;14.20;99.90;;;;;;4990356;28;20129;-80
2022/10/24 00:29:09;;;;;;;5.40;1.90;;;14.30;99.90;;;;;;4990380;28;20448;-80
2022/10/24 00:31:37;;;;;;;6.72;1.88;;;14.20;99.90;;;;;;4990089;28;20042;-80
2022/10/24 00:34:04;;;;;;;7.95;1.38;;;14.30;99.90;;;;;;4974062;28;20046;-80
2022/10/24 00:36:30;;;;;;;7.90;1.90;;;14.30;99.90;;;;;;4989456;28;20050;-80
2022/10/24 00:38:55;;;;;;;5.30;1.95;;;14.30;99.90;;;;;;4991236;28;20058;-80
2022/10/24 00:41:24;;;;;;;3.88;1.80;;;14.30;99.90;;;;;;4989189;28;20050;-80
2022/10/24 00:44:11;;;;;;;4.55;1.63;;;14.20;99.90;;;;;;4973671;28;20092;-80
2022/10/24 00:46:36;;;;;;;5.00;1.40;;;14.20;99.90;;;;;;4990040;28;20053;-80
2022/10/24 00:49:02;;;;;;;10.07;1.98;;;14.20;99.90;;;;;;4989469;28;20054;-81
2022/10/24 00:51:32;;;;;;;4.38;1.70;;;14.20;99.90;;;;;;4989811;28;20054;-81
2022/10/24 00:54:11;;;;;;;4.85;1.95;;;14.20;99.90;;;;;;4990836;28;20075;-80
2022/10/24 00:56:43;;;;;;;8.32;1.88;;;14.20;99.90;;;;;;4989876;28;20062;-80
2022/10/24 00:59:11;;;;;;;6.45;1.90;;;14.20;99.90;;;;;;4989773;28;20086;-81
2022/10/24 01:01:38;;;;;;;8.70;2.10;;;14.30;99.90;;;;;;4989059;28;20042;-80
2022/10/24 01:04:03;;;;;;;6.43;2.17;;;14.30;99.90;;;;;;4990675;28;20126;-80
2022/10/24 01:06:42;;;;;;;7.65;2.63;;;14.30;99.90;;;;;;4989422;28;20459;-80
2022/10/24 01:09:31;;;;;;;6.03;2.10;;;14.30;99.90;;;;;;4989256;28;20050;-81
2022/10/24 01:12:22;;;;;;;6.72;2.28;;;14.30;99.90;;;;;;4988734;28;20061;-81
2022/10/24 01:15:19;;;;;;;5.38;2.15;;;14.40;99.90;;;;;;4989605;28;20058;-80
2022/10/24 01:17:58;;;;;;;6.55;2.33;;;14.50;99.90;;;;;;4988845;28;20038;-80
2022/10/24 01:20:49;;;;;;;4.63;2.13;;;14.40;99.90;;;;;;4989493;28;20058;-80
2022/10/24 01:23:49;;;;;;;9.10;2.80;;;14.60;99.90;;;;;;4989114;28;20058;-80
2022/10/24 01:26:43;;;;;;;10.48;2.63;;;14.60;99.90;;;;;;4988927;28;20134;-80
2022/10/24 01:29:54;;;;;;;7.00;1.95;;;14.50;99.90;;;;;;4987497;28;20057;-81
2022/10/24 01:32:34;;;;;;;5.82;2.45;;;14.60;99.90;;;;;;4988900;28;20116;-81
2022/10/24 01:35:12;;;;;;;4.78;2.40;;;14.60;99.90;;;;;;4989269;28;20457;-81
2022/10/24 01:38:13;;;;;;;6.10;2.20;;;14.60;99.90;;;;;;4988775;28;20125;-81
2022/10/24 01:41:03;;;;;;;16.95;3.17;;;14.60;99.90;;;;;;4976858;28;20047;-82
2022/10/24 01:44:01;;;;;;;8.32;1.92;;;14.60;99.90;;;;;;4987914;28;20046;-80
2022/10/24 01:46:30;;;;;;;6.25;2.45;;;14.50;99.90;;;;;;4988704;28;20794;-82
2022/10/24 01:49:13;;;;;;;7.38;2.38;;;14.50;99.90;;;;;;4988681;28;20116;-81
2022/10/24 01:51:40;;;;;;;11.45;2.80;;;14.50;99.90;;;;;;4988669;28;20116;-81
2022/10/24 01:54:07;;;;;;;8.73;2.35;;;14.40;99.90;;;;;;4987777;28;20038;-82
2022/10/24 01:56:33;;;;;;;4.43;1.88;;;14.40;99.90;;;;;;4989422;28;20058;-81
2022/10/24 01:59:29;;;;;;;4.60;2.50;;;14.40;99.90;;;;;;4989071;28;20050;-81
2022/10/24 02:02:28;;;;;;;5.35;2.30;;;14.40;99.90;;;;;;4988200;28;20046;-81
2022/10/24 02:05:00;;;;;;;9.27;2.08;;;14.40;99.90;;;;;;4961013;28;20058;-81
2022/10/24 02:07:29;;;;;;;9.48;2.22;;;14.50;99.90;;;;;;4988779;28;20460;-81
2022/10/24 02:10:01;;;;;;;3.95;2.03;;;14.50;99.90;;;;;;4988039;28;20058;-81
2022/10/24 02:12:28;;;;;;;7.20;2.70;;;14.60;99.90;;;;;;4971635;28;20060;-81
2022/10/24 02:15:00;;;;;;;6.35;2.40;;;14.60;99.90;;;;;;4988232;28;20046;-81
2022/10/24 02:17:26;;;;;;;5.82;2.70;;;14.60;99.90;;;;;;4988105;28;20389;-81
2022/10/24 02:19:52;;;;;;;5.72;2.17;;;14.60;99.90;;;;;;4988051;28;20112;-81
2022/10/24 02:22:43;;;;;;;13.48;2.72;;;14.70;99.90;;;;;;4987995;28;20092;-81
2022/10/24 02:25:17;;;;;;;5.43;2.55;;;14.60;99.90;;;;;;4987949;28;20050;-81
2022/10/24 02:27:47;;;;;;;7.82;2.60;;;14.60;99.90;;;;;;4987728;28;20054;-81
2022/10/24 02:30:21;;;;;;;4.00;2.22;;;14.60;99.90;;;;;;4988141;28;20046;-81
2022/10/24 02:32:51;;;;;;;9.43;2.97;;;14.60;99.90;;;;;;4987314;28;20042;-81
2022/10/24 02:35:21;;;;;;;8.43;2.88;;;14.50;99.90;;;;;;4988000;28;20129;-81
2022/10/24 02:37:51;;;;;;;8.23;2.38;;;14.50;99.90;;;;;;4988033;28;20670;-81
2022/10/24 02:40:20;;;;;;;8.68;2.33;;;14.50;99.90;;;;;;4987832;28;20046;-81
2022/10/24 02:42:50;;;;;;;5.38;2.10;;;14.40;99.90;;;;;;4987207;28;20050;-81
2022/10/24 02:45:16;;;;;;;7.70;2.50;;;14.40;99.90;;;;;;4971633;28;20136;-81
2022/10/24 02:47:44;;;;;;;6.82;2.25;;;14.40;99.90;;;;;;4988709;28;20050;-81
2022/10/24 02:50:11;;;;;;;4.00;2.15;;;14.30;99.90;;;;;;4987891;28;20050;-81
2022/10/24 02:52:38;;;;;;;10.00;2.70;;;14.30;99.90;;;;;;4987948;28;20416;-81
2022/10/24 02:55:05;;;;;;;6.75;2.50;;;14.30;99.90;;;;;;4988950;28;20373;-81
2022/10/24 02:57:30;;;;;;;9.73;2.70;;;14.30;99.90;;;;;;4987226;28;20050;-81
2022/10/24 02:59:56;;;;;;;7.18;2.72;;;14.40;99.90;;;;;;4988211;28;20045;-81
2022/10/24 03:02:22;;;;;;;4.95;2.45;;;14.30;99.90;;;;;;4972270;28;20051;-80
2022/10/24 03:04:48;;;;;;;6.32;2.55;;;14.30;99.90;;;;;;4988335;28;20133;-81
2022/10/24 03:07:13;;;;;;;8.68;2.72;;;14.30;99.90;;;;;;4987833;28;20042;-81
2022/10/24 03:09:39;;;;;;;8.15;2.65;;;14.20;99.90;;;;;;4988032;28;20058;-81
2022/10/24 03:12:05;;;;;;;7.55;2.65;;;14.20;99.90;;;;;;4988000;28;20462;-81
2022/10/24 03:14:31;;;;;;;11.02;2.65;;;14.20;99.90;;;;;;4988449;28;20046;-81
2022/10/24 03:16:57;;;;;;;24.63;2.97;;;14.20;99.90;;;;;;4987862;28;20046;-81
2022/10/24 03:19:22;;;;;;;9.88;2.90;;;14.20;99.90;;;;;;4988502;28;20082;-81
2022/10/24 03:21:48;;;;;;;5.30;2.30;;;14.30;99.90;;;;;;4987895;28;20051;-81
2022/10/24 03:24:14;;;;;;;6.45;2.60;;;14.30;99.90;;;;;;4987311;28;20058;-81
2022/10/24 03:26:39;;;;;;;6.05;2.65;;;14.30;99.90;;;;;;4971518;28;20400;-81
2022/10/24 03:29:05;;;;;;;7.80;2.70;;;14.30;99.90;;;;;;4987857;28;20055;-81
2022/10/24 03:31:31;;;;;;;8.32;2.58;;;14.30;99.90;;;;;;4972110;28;20108;-81
2022/10/24 03:33:57;;;;;;;9.38;2.72;;;14.30;99.90;;;;;;4971872;28;20129;-81
2022/10/24 03:36:23;;;;;;;11.55;3.00;;;14.30;99.90;;;;;;4988883;28;20038;-81
2022/10/24 03:38:49;;;;;;;7.95;2.75;;;14.20;99.90;;;;;;4987975;28;20117;-81
2022/10/24 03:41:14;;;;;;;9.73;2.75;;;14.20;99.90;;;;;;4989097;28;20176;-81
2022/10/24 03:43:40;;;;;;;8.10;2.75;;;14.20;99.90;;;;;;4988114;28;20046;-81
2022/10/24 03:46:05;;;;;;;5.75;2.60;;;14.30;99.90;;;;;;4988160;28;20049;-81
2022/10/24 03:48:31;;;;;;;11.07;3.03;;;14.30;99.90;;;;;;4987298;28;20152;-81
2022/10/24 03:50:56;;;;;;;6.40;2.40;;;14.30;99.90;;;;;;4987785;28;20050;-81
2022/10/24 03:53:22;;;;;;;10.88;3.22;;;14.30;99.90;;;;;;4990751;28;20045;-81
2022/10/24 03:55:48;;;;;;;8.57;2.45;;;14.30;99.90;;;;;;4991190;28;20133;-81
2022/10/24 03:58:13;;;;;;;9.82;2.45;;;14.30;99.90;;;;;;4991194;28;20062;-81
2022/10/24 04:00:39;;;;;;;9.77;3.13;;;14.30;99.90;;;;;;4991570;28;20053;-81
2022/10/24 04:03:08;;;;;;;7.20;2.47;;;14.40;99.90;;;;;;4991375;28;20093;-80
2022/10/24 04:05:34;;;;;;;5.38;2.40;;;14.30;99.90;;;;;;4991289;28;20046;-81
2022/10/24 04:08:00;;;;;;;15.88;2.85;;;14.40;99.90;;;;;;4990915;28;20073;-81
2022/10/24 04:10:26;;;;;;;14.45;2.90;;;14.30;99.90;;;;;;4992099;28;20038;-80
2022/10/24 04:12:52;;;;;;;10.95;2.75;;;14.30;99.90;;;;;;4990571;28;20057;-81
2022/10/24 04:15:18;;;;;;;4.80;2.22;;;14.30;99.90;;;;;;4990954;28;20047;-81
2022/10/24 04:17:44;;;;;;;5.28;2.20;;;14.20;99.90;;;;;;4990767;28;20113;-81
2022/10/24 04:20:10;;;;;;;8.52;2.97;;;14.20;99.90;;;;;;4990737;28;20455;-81
2022/10/24 04:22:36;;;;;;;9.63;2.80;;;14.20;99.90;;;;;;4992107;28;20169;-81
2022/10/24 04:25:01;;;;;;;8.25;2.33;;;14.20;99.90;;;;;;4991179;28;20129;-81
2022/10/24 04:27:27;;;;;;;7.32;2.25;;;14.10;99.90;;;;;;4989707;28;20050;-80
2022/10/24 04:29:53;;;;;;;13.05;2.78;;;14.10;99.90;;;;;;4990784;28;20104;-81
2022/10/24 04:32:18;;;;;;;6.68;2.22;;;14.10;99.90;;;;;;4989831;28;20559;-80
2022/10/24 04:34:44;;;;;;;6.50;2.60;;;14.10;99.90;;;;;;4990785;28;20420;-81
2022/10/24 04:37:09;;;;;;;6.45;2.58;;;14.10;99.90;;;;;;4990831;28;20042;-81
2022/10/24 04:39:35;;;;;;;3.92;2.10;;;14.10;99.90;;;;;;4990769;28;20045;-81
2022/10/24 04:42:01;;;;;;;7.45;2.50;;;14.10;99.90;;;;;;4990287;28;20058;-81
2022/10/24 04:44:26;;;;;;;7.95;2.28;;;14.10;99.90;;;;;;4991653;28;20041;-80
2022/10/24 04:46:52;;;;;;;4.53;2.42;;;14.10;99.90;;;;;;4990341;28;20345;-80
2022/10/24 04:49:18;;;;;;;6.95;2.63;;;14.10;99.90;;;;;;4990167;28;20046;-81
2022/10/24 04:51:44;;;;;;;5.28;2.17;;;14.10;99.90;;;;;;4990154;28;20054;-80
2022/10/24 04:54:09;;;;;;;6.00;2.70;;;14.20;99.90;;;;;;4989792;28;20050;-81
2022/10/24 04:56:35;;;;;;;5.10;2.00;;;14.20;99.90;;;;;;4989407;28;20578;-81
2022/10/24 04:59:01;;;;;;;5.80;2.50;;;14.80;99.90;;;;;;4991652;28;20584;-80
2022/10/24 05:01:26;;;;;;;8.25;1.98;;;14.20;99.90;;;;;;4990475;28;20085;-81
2022/10/24 05:03:52;;;;;;;5.10;2.00;;;14.20;99.90;;;;;;4989209;28;20112;-81
2022/10/24 05:06:17;;;;;;;4.47;2.20;;;14.10;99.90;;;;;;4989642;28;20207;-81
2022/10/24 05:08:43;;;;;;;8.25;2.60;;;14.10;99.90;;;;;;4990207;28;20428;-80
2022/10/24 05:11:10;;;;;;;6.15;2.15;;;14.10;99.90;;;;;;4974230;28;20125;-81
2022/10/24 05:13:36;;;;;;;11.27;2.33;;;14.10;99.90;;;;;;4989113;28;20062;-81
2022/10/24 05:16:02;;;;;;;12.05;2.63;;;14.10;99.90;;;;;;4989696;28;20092;-80
2022/10/24 05:18:28;;;;;;;4.60;2.03;;;14.10;99.90;;;;;;4989935;28;20050;-81
2022/10/24 05:20:57;;;;;;;6.75;3.15;;;14.10;99.90;;;;;;4989851;28;20046;-81
2022/10/24 05:23:23;;;;;;;6.18;1.98;;;14.00;99.90;;;;;;4989399;28;20519;-81
2022/10/24 05:25:48;;;;;;;5.55;2.15;;;14.00;99.90;;;;;;4989216;28;20058;-81
2022/10/24 05:28:14;;;;;;;5.85;2.08;;;14.00;99.90;;;;;;4987880;28;20081;-81
2022/10/24 05:30:45;;;;;;;5.20;1.90;;;14.00;99.90;;;;;;4989004;28;20447;-81
2022/10/24 05:33:11;;;;;;;6.75;2.22;;;14.00;99.90;;;;;;4989016;28;20066;-81
2022/10/24 05:35:36;;;;;;;13.70;3.03;;;14.60;99.90;;;;;;4988532;28;20080;-81
2022/10/24 05:38:02;;;;;;;7.40;2.00;;;14.00;99.90;;;;;;4988980;28;20050;-81
2022/10/24 05:40:28;;;;;;;5.82;2.30;;;14.00;99.90;;;;;;4989025;28;20584;-81
2022/10/24 05:42:54;;;;;;;6.63;2.47;;;13.90;99.90;;;;;;4988083;28;20248;-81
2022/10/24 05:45:20;;;;;;;7.40;1.70;;;13.90;99.90;;;;;;4988926;28;20275;-81
2022/10/24 05:47:45;;;;;;;6.65;2.00;;;13.90;99.90;;;;;;4989038;28;20046;-81
2022/10/24 05:50:11;;;;;;;5.05;1.75;;;14.40;99.90;;;;;;4988630;28;20117;-81
2022/10/24 05:52:38;;;;;;;4.63;1.85;;;13.90;99.90;;;;;;4988720;28;20050;-81
2022/10/24 05:55:05;;;;;;;2.75;1.55;;;14.00;99.90;;;;;;4988466;28;20054;-81
2022/10/24 05:57:31;;;;;;;11.20;2.10;;;14.00;99.90;;;;;;4987439;28;20047;-81
2022/10/24 05:59:57;;;;;;;10.50;1.90;;;14.30;99.90;;;;;;4988180;28;20042;-82
2022/10/24 06:02:22;;;;;;;6.32;2.10;;;14.10;99.90;;;;;;4988730;28;20112;-81
2022/10/24 06:04:49;;;;;;;5.28;2.00;;;14.10;99.90;;;;;;4972407;28;20049;-81
2022/10/24 06:07:16;;;;;;;6.90;1.60;;;14.20;99.90;;;;;;4971437;28;20049;-81
2022/10/24 06:09:42;;;;;;;4.40;1.70;;;14.20;99.90;;;;;;4971940;28;20511;-81
2022/10/24 06:12:09;;;;;;;4.47;1.58;;;14.20;99.90;;;;;;4987471;28;20038;-80
2022/10/24 06:14:36;;;;;;;3.75;1.73;;;14.20;99.90;;;;;;4987492;28;20046;-81
2022/10/24 06:17:04;;;;;;;11.82;2.13;;;14.20;99.90;;;;;;4987976;28;20173;-80
2022/10/24 06:19:29;;;;;;;9.32;1.75;;;14.20;99.90;;;;;;4987494;28;20057;-80
2022/10/24 06:21:55;;;;;;;5.25;1.63;;;14.20;99.90;;;;;;4987951;28;20046;-81
2022/10/24 06:24:20;;;;;;;5.53;1.70;;;14.20;99.90;;;;;;4988537;28;20042;-80
2022/10/24 06:26:46;;;;;;;4.28;1.55;;;14.20;99.90;;;;;;4987018;28;20061;-80
2022/10/24 06:29:12;;;;;;;6.35;1.70;;;14.20;99.90;;;;;;4988041;28;20108;-80
2022/10/24 06:31:37;;;;;;;5.65;1.92;;;14.40;99.90;;;;;;4971488;28;20045;-80
2022/10/24 06:34:04;;;;;;;8.50;1.73;;;14.20;99.90;;;;;;4988127;28;20046;-80
2022/10/24 06:36:29;;;;;;;11.00;2.08;;;14.20;99.90;;;;;;4987039;28;20056;-80
2022/10/24 06:38:56;;;;;;;4.60;1.65;;;14.20;99.90;;;;;;4989441;28;20038;-80
2022/10/24 06:41:22;;;;;;;6.97;1.73;;;14.30;99.90;;;;;;4987342;28;20352;-80
2022/10/24 06:43:48;;;;;;;3.83;1.95;;;14.20;99.90;;;;;;4987661;28;20042;-79
2022/10/24 06:46:16;;;;;;;7.60;1.77;;;14.20;99.90;;;;;;4987791;28;20504;-80
2022/10/24 06:48:42;;;;;;;4.32;1.70;;;14.20;99.90;;;;;;4988020;28;20058;-79
2022/10/24 06:51:08;;;;;;;7.13;1.98;;;14.50;99.90;;;;;;4987625;28;20077;-80
2022/10/24 06:53:34;;;;;;;6.20;1.98;;;14.20;99.90;;;;;;4987243;28;20065;-80
2022/10/24 06:56:01;;;;;;;8.18;2.15;;;14.30;99.90;;;;;;4987587;28;20481;-81
2022/10/24 06:58:33;;;;;;;4.68;1.92;;;14.20;99.90;;;;;;4987156;28;20145;-82
2022/10/24 07:00:59;;;;;;;5.28;1.80;;;14.20;99.90;;;;;;4987483;28;20492;-79
2022/10/24 07:03:25;;;;;;;6.15;1.67;;;14.20;99.90;;;;;;4987781;28;20048;-82
2022/10/24 07:05:50;;;;;;;8.45;1.88;;;14.20;99.90;;;;;;4986826;28;20060;-81
2022/10/24 07:08:16;;;;;;;5.97;1.70;;;14.20;99.90;;;;;;4987556;28;20049;-81
2022/10/24 07:10:41;;;;;;;3.75;1.80;;;14.20;99.90;;;;;;4987628;28;20046;-80
2022/10/24 07:13:07;;;;;;;10.80;2.42;;;14.30;99.90;;;;;;4987264;28;20395;-81
2022/10/24 07:15:33;;;;;;;7.88;1.98;;;14.50;99.90;;;;;;4970639;28;20077;-80
2022/10/24 07:17:58;;;;;;;6.90;1.83;;;14.50;99.90;;;;;;4971513;28;20355;-80
2022/10/24 07:20:24;;;;;;;7.72;2.00;;;14.60;99.90;;;;;;4987643;28;20121;-81
2022/10/24 07:22:50;;;;;;;8.80;1.95;;;14.70;99.90;;;;;;4987201;28;20078;-81
2022/10/24 07:25:17;;;;;;;6.40;2.03;;;14.80;99.90;;;;;;4987417;28;20046;-81
2022/10/24 07:27:42;;;;;;;5.95;1.83;;;14.90;99.90;;;;;;4972568;28;20567;-81
2022/10/24 07:30:15;;;;;;;5.78;1.83;;;14.90;99.90;;;;;;4991638;28;21100;-81
2022/10/24 07:32:40;;;;;;;8.27;2.17;;;14.90;99.90;;;;;;4991450;28;20116;-81
2022/10/24 07:35:06;;;;;;;8.50;2.00;;;14.90;99.90;;;;;;4992727;28;20046;-81
2022/10/24 07:37:32;;;;;;;7.82;1.90;;;15.00;99.90;;;;;;4974051;28;20409;-79
2022/10/24 07:39:58;;;;;;;4.45;1.80;;;15.00;99.90;;;;;;4992348;28;20046;-79
2022/10/24 07:42:23;;;;;;;8.00;1.77;;;15.00;99.90;;;;;;4990573;28;20451;-80
2022/10/24 07:44:49;;;;;;;6.18;1.88;;;15.00;99.90;;;;;;4974611;28;20161;-80
2022/10/24 07:47:14;;;;;;;4.80;1.70;;;15.00;99.90;;;;;;4990810;28;20093;-79
2022/10/24 07:49:40;;;;;;;8.85;1.95;;;15.00;99.90;;;;;;4990756;28;20157;-79
2022/10/24 07:52:05;;;;;;;4.88;1.70;;;15.00;99.90;;;;;;4990318;28;20487;-80
2022/10/24 07:54:31;;;;;;;7.70;2.17;;;15.00;99.90;;;;;;4990389;28;20046;-80
2022/10/24 07:56:56;;;;;;;9.75;1.85;;;15.10;99.90;;;;;;4990240;28;20100;-78
2022/10/24 07:59:22;;;;;;;5.97;1.52;;;15.10;99.90;;;;;;4974282;28;20085;-83
2022/10/24 08:01:48;;;;;;;3.97;1.60;;;15.20;99.90;;;;;;4990533;28;20042;-81
2022/10/24 08:04:13;;;;;;;3.47;1.80;;;15.30;99.90;;;;;;4990229;28;20254;-81
2022/10/24 08:06:41;;;;;;;7.03;1.95;;;15.40;99.90;;;;;;4990288;28;20093;-82
2022/10/24 08:09:07;;;;;;;7.68;2.00;;;15.50;99.90;;;;;;4991901;28;20125;-81
2022/10/24 08:11:33;;;;;;;6.88;1.92;;;15.70;99.90;;;;;;4990397;28;20050;-83
2022/10/24 08:14:01;;;;;;;7.30;2.00;;;15.60;99.90;;;;;;4990158;28;20054;-81
2022/10/24 08:16:27;;;;;;;4.03;1.50;;;15.70;99.90;;;;;;4990459;28;20145;-81
2022/10/24 08:18:55;;;;;;;8.50;1.73;;;15.70;99.90;;;;;;4989760;28;20134;-82
2022/10/24 08:21:21;;;;;;;3.72;1.80;;;15.70;99.90;;;;;;4989793;28;20137;-82
2022/10/24 08:23:50;;;;;;;7.43;1.50;;;15.90;99.90;;;;;;4991426;28;20488;-81
2022/10/24 08:26:18;;;;;;;4.53;1.63;;;15.80;99.90;;;;;;4990641;28;20173;-82
2022/10/24 08:28:45;;;;;;;3.72;1.38;;;15.90;99.90;;;;;;4990279;28;20077;-82
2022/10/24 08:31:22;;;;;;;5.70;1.92;;;15.90;99.90;;;;;;4990412;28;20500;-81
2022/10/24 08:33:51;;;;;;;8.68;1.70;;;15.90;99.90;;;;;;4974158;28;20039;-81
2022/10/24 08:36:22;;;;;;;8.60;1.60;;;16.00;99.90;;;;;;4990705;28;20038;-81
2022/10/24 08:38:47;;;;;;;8.48;1.60;;;16.00;99.90;;;;;;4974184;28;20125;-81
2022/10/24 08:41:24;;;;;;;8.82;1.70;;;16.10;99.90;;;;;;4974464;28;20495;-81
2022/10/24 08:43:51;;;;;;;4.05;1.75;;;16.20;99.90;;;;;;4990267;28;20236;-81
2022/10/24 08:46:29;;;;;;;4.35;1.50;;;16.20;99.90;;;;;;4974685;28;20060;-81
2022/10/24 08:49:11;;;;;;;8.73;1.70;;;16.40;99.90;;;;;;4990502;28;20093;-80
2022/10/24 08:51:52;;;;;;;7.47;1.83;;;16.40;99.90;;;;;;4991575;28;20050;-82
2022/10/24 08:54:23;;;;;;;4.68;1.50;;;16.50;99.90;;;;;;4989876;28;20098;-82
2022/10/24 08:56:53;;;;;;;7.70;1.87;;;16.70;99.90;;;;;;4991198;28;20066;-82
2022/10/24 08:59:19;;;;;;;9.57;1.50;;;16.70;99.90;;;;;;4991698;28;20053;-80
2022/10/24 09:01:55;;;;;;;4.90;1.40;;;16.70;99.90;;;;;;4989913;28;20047;-83
2022/10/24 09:04:23;;;;;;;5.75;1.77;;;16.60;99.90;;;;;;4990184;28;20368;-82
2022/10/24 09:06:52;;;;;;;6.25;1.73;;;16.60;99.90;;;;;;4990247;28;20130;-82
2022/10/24 09:09:28;;;;;;;6.63;1.60;;;16.60;99.90;;;;;;4973664;28;20097;-82
2022/10/24 09:12:03;;;;;;;9.60;1.63;;;16.60;99.90;;;;;;4989664;28;20114;-82
2022/10/24 09:14:31;;;;;;;5.55;2.00;;;16.60;99.90;;;;;;4989158;28;20057;-82
2022/10/24 09:17:05;;;;;;;9.63;2.50;;;16.60;99.90;;;;;;4973962;28;20038;-81
2022/10/24 09:19:31;;;;;;;10.18;3.25;;;16.50;99.90;;;;;;4989787;28;20050;-80
2022/10/24 09:21:58;;;;;;;5.95;1.98;;;16.50;99.90;;;;;;4973531;28;20047;-81
2022/10/24 09:24:43;;;;;;;6.18;1.60;;;16.50;99.90;;;;;;4990863;28;20034;-80
2022/10/24 09:27:18;;;;;;;3.72;1.17;;;16.50;99.90;;;;;;4989090;28;20050;-80
2022/10/24 09:29:44;;;;;;;8.75;1.40;;;16.50;99.90;;;;;;4989618;28;20132;-81
2022/10/24 09:32:16;;;;;;;8.65;1.75;;;16.50;99.90;;;;;;4990179;28;20088;-81
2022/10/24 09:34:42;;;;;;;9.60;2.08;;;16.50;99.90;;;;;;4988952;28;20056;-81
2022/10/24 09:37:28;;;;;;;6.07;1.60;;;16.60;99.90;;;;;;4989620;28;20069;-81
2022/10/24 09:40:13;;;;;;;6.70;1.77;;;16.60;99.90;;;;;;4989765;28;20054;-82
2022/10/24 09:42:46;;;;;;;7.00;1.58;;;16.60;99.90;;;;;;4989845;28;20416;-80
2022/10/24 09:45:19;;;;;;;4.20;1.17;;;16.70;99.90;;;;;;4989475;28;20058;-81
2022/10/24 09:47:52;;;;;;;4.60;1.27;;;16.70;99.90;;;;;;4989686;28;20050;-81
2022/10/24 09:50:22;;;;;;;5.05;1.23;;;16.70;99.90;;;;;;4988697;28;20050;-81
2022/10/24 09:52:50;;;;;;;5.40;1.80;;;16.80;99.90;;;;;;4989350;28;20445;-81
2022/10/24 09:55:17;;;;;;;6.80;1.30;;;16.70;99.90;;;;;;4988491;28;20050;-81
2022/10/24 09:57:43;;;;;;;3.92;1.25;;;16.80;99.90;;;;;;4988792;28;20078;-81
2022/10/24 10:00:31;;;;;;;8.27;1.50;;;16.80;99.90;;;;;;4988646;28;20132;-81
2022/10/24 10:03:19;;;;;;;2.70;0.80;;;16.90;99.90;;;;;;4990129;28;20046;-81
2022/10/24 10:06:18;;;;;;;5.75;1.58;;;17.00;99.90;;;;;;4988980;28;20054;-81
2022/10/24 10:08:52;;;;;;;6.50;1.65;;;17.20;99.90;;;;;;4988723;28;20492;-81
2022/10/24 10:11:31;;;;;;;5.95;1.27;;;17.30;99.90;;;;;;4988321;28;20503;-81
2022/10/24 10:14:00;;;;;;;4.10;1.42;;;17.20;99.90;;;;;;4972197;28;20054;-81
2022/10/24 10:16:29;;;;;;;14.07;1.50;;;17.20;99.90;;;;;;4989893;28;20053;-80
2022/10/24 10:19:03;;;;;;;5.30;1.30;;;17.20;99.90;;;;;;4988211;28;20181;-81
2022/10/24 10:21:56;;;;;;;4.53;0.93;;;17.20;99.90;;;;;;4988520;28;20092;-81
2022/10/24 10:24:26;;;;;;;3.53;1.17;;;17.20;99.90;;;;;;4988207;28;20062;-81
2022/10/24 10:26:52;;;;;;;4.63;1.08;;;17.30;99.90;;;;;;4986990;28;20367;-81
2022/10/24 10:29:18;;;;;;;3.17;0.98;;;17.30;99.90;;;;;;4988155;28;20097;-80
2022/10/24 10:31:50;;;;;;;4.20;0.95;;;17.30;99.90;;;;;;4987788;28;20050;-81
2022/10/24 10:34:39;;;;;;;6.10;1.60;;;17.30;99.90;;;;;;4988985;28;20050;-81
2022/10/24 10:37:18;;;;;;;5.55;1.15;;;17.20;99.90;;;;;;4987428;28;20041;-80
2022/10/24 10:40:21;;;;;;;3.22;0.98;;;17.10;99.90;;;;;;4988854;28;20046;-80
2022/10/24 10:43:29;;;;;;;4.13;1.02;;;17.20;99.90;;;;;;4987729;28;20061;-81
2022/10/24 10:46:05;;;;;;;4.13;1.20;;;17.40;99.90;;;;;;4987956;28;20054;-80
2022/10/24 10:48:55;;;;;;;3.75;0.82;;;17.50;99.90;;;;;;4971315;28;20054;-81
2022/10/24 10:51:42;;;;;;;4.10;0.98;;;17.50;99.90;;;;;;4988030;28;20053;-81
2022/10/24 10:54:26;;;;;;;9.23;1.55;;;17.50;99.90;;;;;;4987055;28;20061;-81
2022/10/24 10:57:11;;;;;;;6.45;1.10;;;17.60;99.90;;;;;;4986985;28;20073;-80
2022/10/24 11:00:06;;;;;;;6.18;1.27;;;17.60;99.90;;;;;;4971662;28;20117;-80
2022/10/24 11:02:57;;;;;;;5.03;1.15;;;17.70;99.90;;;;;;4965003;28;20062;-80
2022/10/24 11:05:35;;;;;;;3.58;0.90;;;17.80;99.90;;;;;;4991399;28;20496;-80
2022/10/24 11:08:25;;;;;;;4.65;1.20;;;17.80;99.90;;;;;;4991776;28;20042;-80
2022/10/24 11:10:56;;;;;;;5.80;1.52;;;18.10;99.90;;;;;;4991644;28;20096;-80
2022/10/24 11:13:31;;;;;;;5.07;1.10;;;17.60;99.90;;;;;;4990751;28;20061;-80
2022/10/24 11:16:03;;;;;;;5.88;1.08;;;17.60;99.90;;;;;;4991630;28;20404;-80
2022/10/24 11:18:37;;;;;;;4.13;1.00;;;17.60;99.90;;;;;;4975229;28;20054;-80
2022/10/24 11:21:12;;;;;;;5.22;1.33;;;17.60;99.90;;;;;;4993220;28;20153;-81
2022/10/24 11:23:43;;;;;;;4.78;1.50;;;17.50;99.90;;;;;;4991153;28;20420;-81
2022/10/24 11:26:17;;;;;;;6.28;1.17;;;17.40;99.90;;;;;;4991159;28;20052;-81
2022/10/24 11:28:55;;;;;;;4.20;1.13;;;17.30;99.90;;;;;;4991122;28;20117;-81
2022/10/24 11:31:25;;;;;;;5.47;1.25;;;17.30;99.90;;;;;;4991054;28;20046;-81
2022/10/24 11:34:04;;;;;;;4.18;1.08;;;17.30;99.90;;;;;;4991456;28;20057;-80
2022/10/24 11:36:45;;;;;;;2.78;0.88;;;17.30;99.90;;;;;;4991151;28;20227;-81
2022/10/24 11:39:21;;;;;;;5.55;1.23;;;17.20;99.90;;;;;;4990746;28;20047;-81
2022/10/24 11:41:57;;;;;;;6.43;1.23;;;17.20;99.90;;;;;;4974584;28;20113;-81
2022/10/24 11:44:37;;;;;;;4.30;1.00;;;17.10;99.90;;;;;;4990906;28;20031;-80
2022/10/24 11:47:31;;;;;;;14.23;1.40;;;17.10;99.90;;;;;;4990202;28;20049;-80
2022/10/24 11:50:16;;;;;;;2.20;0.93;;;17.40;99.90;;;;;;4990462;28;20054;-80
2022/10/24 11:52:47;;;;;;;5.30;1.15;;;17.30;99.90;;;;;;4990925;28;20081;-80
2022/10/24 11:55:30;;;;;;;2.25;1.02;;;17.40;99.90;;;;;;4992091;28;20108;-80
2022/10/24 11:57:58;;;;;;;8.10;1.40;;;17.30;99.90;;;;;;4989868;28;20480;-81
2022/10/24 12:00:47;;;;;;;3.63;1.10;;;17.30;99.90;;;;;;4990662;28;20043;-79
2022/10/24 12:03:32;;;;;;;6.72;1.42;;;17.30;99.90;;;;;;4991882;28;20049;-78
2022/10/24 12:06:03;;;;;;;3.60;1.20;;;17.20;99.90;;;;;;4991727;28;20046;-79
2022/10/24 12:08:44;;;;;;;7.57;1.50;;;17.10;99.90;;;;;;4990747;28;20567;-79
2022/10/24 12:11:42;;;;;;;6.07;0.90;;;17.20;99.90;;;;;;4990623;28;20072;-80
2022/10/24 12:14:38;;;;;;;4.70;0.82;;;17.30;99.90;;;;;;4990838;28;20520;-79
2022/10/24 12:17:27;;;;;;;6.45;1.52;;;17.30;99.90;;;;;;4989995;28;20042;-80
2022/10/24 12:19:53;;;;;;;4.47;1.23;;;17.30;99.90;;;;;;4990379;28;20057;-83
2022/10/24 12:22:30;;;;;;;4.40;0.95;;;17.60;99.90;;;;;;4990547;28;20396;-80
2022/10/24 12:25:06;;;;;;;3.53;0.80;;;17.30;99.90;;;;;;4989842;28;20057;-79
2022/10/24 12:27:40;;;;;;;4.88;1.40;;;17.20;99.90;;;;;;4989736;28;20054;-80
2022/10/24 12:30:08;;;;;;;3.55;1.00;;;17.20;99.90;;;;;;4990019;28;20050;-80
2022/10/24 12:32:46;;;;;;;7.10;1.30;;;17.20;99.90;;;;;;4973804;28;20050;-79
2022/10/24 12:35:34;;;;;;;3.95;1.08;;;17.10;99.90;;;;;;4990292;28;20046;-80
2022/10/24 12:38:01;;;;;;;3.13;0.88;;;17.10;99.90;;;;;;4990010;28;20471;-80
2022/10/24 12:40:57;;;;;;;4.70;1.30;;;17.00;99.90;;;;;;4990367;28;20128;-80
2022/10/24 12:43:26;;;;;;;4.22;1.10;;;16.90;99.90;;;;;;4989698;28;20050;-80
2022/10/24 12:45:52;;;;;;;1.83;0.77;;;17.00;99.90;;;;;;4990068;28;20089;-80
2022/10/24 12:48:35;;;;;;;4.22;0.88;;;17.00;99.90;;;;;;4990768;28;20074;-80
2022/10/24 12:51:25;;;;;;;1.73;0.80;;;17.10;99.90;;;;;;4990242;28;20042;-80
2022/10/24 12:54:11;;;;;;;5.50;2.10;;;17.00;99.90;;;;;;4990117;28;20189;-81
2022/10/24 12:56:50;;;;;;;3.03;1.25;;;17.00;99.90;;;;;;4989600;28;20050;-80
2022/10/24 12:59:26;;;;;;;7.35;3.08;;;16.90;99.90;;;;;;4990694;28;20050;-80
2022/10/24 13:02:11;;;;;;;5.00;1.30;;;16.80;99.90;;;;;;4989994;28;20062;-80
2022/10/24 13:05:04;;;;;;;3.65;0.80;;;16.70;99.90;;;;;;4990396;28;20050;-80
2022/10/24 13:07:58;;;;;;;4.70;1.10;;;16.70;99.90;;;;;;4989886;28;20050;-80
2022/10/24 13:10:29;;;;;;;2.38;0.90;;;16.70;99.90;;;;;;4991452;28;20061;-81